createdAt,value
2018-05-08T00:00:18.016Z,1007.17
2018-05-08T00:01:18.005Z,1007.16
2018-05-08T00:02:17.991Z,1007.14
2018-05-08T00:03:18.184Z,1007.14
2018-05-08T00:04:17.970Z,1007.13
2018-05-08T00:05:17.965Z,1007.14
2018-05-08T00:06:17.943Z,1007.15
2018-05-08T00:07:17.933Z,1007.09
2018-05-08T00:08:17.922Z,1007.15
2018-05-08T00:09:17.912Z,1007.16
2018-05-08T00:10:17.897Z,1007.13
2018-05-08T00:11:17.885Z,1007.16
2018-05-08T00:12:17.876Z,1007.17
2018-05-08T00:13:17.860Z,1007.22
2018-05-08T00:14:17.849Z,1007.17
2018-05-08T00:15:17.839Z,1007.15
2018-05-08T00:16:17.831Z,1007.14
2018-05-08T00:17:17.813Z,1007.12
2018-05-08T00:18:17.803Z,1007.11
2018-05-08T00:19:17.791Z,1007.09
2018-05-08T00:20:17.777Z,1007.07
2018-05-08T00:21:17.770Z,1007.07
2018-05-08T00:22:17.755Z,1007.05
2018-05-08T00:23:17.746Z,1007.05
2018-05-08T00:24:17.730Z,1007.05
2018-05-08T00:25:17.719Z,1007.03
2018-05-08T00:26:17.708Z,1007.01
2018-05-08T00:27:17.693Z,1007
2018-05-08T00:28:17.682Z,1006.98
2018-05-08T00:29:17.669Z,1006.98
2018-05-08T00:30:17.657Z,1006.95
2018-05-08T00:31:17.644Z,1006.93
2018-05-08T00:32:17.634Z,1006.94
2018-05-08T00:33:17.620Z,1006.92
2018-05-08T00:34:17.610Z,1006.87
2018-05-08T00:35:17.598Z,1006.86
2018-05-08T00:36:17.587Z,1006.81
2018-05-08T00:37:17.570Z,1006.81
2018-05-08T00:38:17.559Z,1006.79
2018-05-08T00:39:17.546Z,1006.79
2018-05-08T00:40:17.540Z,1006.73
2018-05-08T00:41:17.524Z,1006.71
2018-05-08T00:42:17.510Z,1006.72
2018-05-08T00:43:17.499Z,1006.71
2018-05-08T00:44:17.488Z,1006.73
2018-05-08T00:45:17.476Z,1006.72
2018-05-08T00:46:17.461Z,1006.72
2018-05-08T00:47:17.450Z,1006.69
2018-05-08T00:48:17.437Z,1006.67
2018-05-08T00:49:17.426Z,1006.66
2018-05-08T00:50:17.413Z,1006.63
2018-05-08T00:51:17.398Z,1006.65
2018-05-08T00:52:17.388Z,1006.66
2018-05-08T00:53:17.376Z,1006.63
2018-05-08T00:54:17.364Z,1006.63
2018-05-08T00:55:17.350Z,1006.61
2018-05-08T00:56:17.339Z,1006.64
2018-05-08T00:57:17.325Z,1006.6
2018-05-08T00:58:17.314Z,1006.61
2018-05-08T00:59:17.301Z,1006.58
2018-05-08T01:00:17.289Z,1006.55
2018-05-08T01:01:17.278Z,1006.57
2018-05-08T01:02:17.264Z,1006.58
2018-05-08T01:03:17.252Z,1006.56
2018-05-08T01:04:17.239Z,1006.56
2018-05-08T01:05:17.230Z,1006.55
2018-05-08T01:06:17.215Z,1006.55
2018-05-08T01:07:17.205Z,1006.55
2018-05-08T01:08:17.192Z,1006.53
2018-05-08T01:09:17.177Z,1006.53
2018-05-08T01:10:17.167Z,1006.54
2018-05-08T01:11:17.154Z,1006.53
2018-05-08T01:12:17.139Z,1006.49
2018-05-08T01:13:17.129Z,1006.48
2018-05-08T01:14:17.124Z,1006.43
2018-05-08T01:15:17.102Z,1006.45
2018-05-08T01:16:17.089Z,1006.44
2018-05-08T01:17:17.086Z,1006.39
2018-05-08T01:18:17.069Z,1006.37
2018-05-08T01:19:17.053Z,1006.42
2018-05-08T01:20:17.040Z,1006.41
2018-05-08T01:21:17.030Z,1006.38
2018-05-08T01:22:17.015Z,1006.42
2018-05-08T01:23:17.004Z,1006.39
2018-05-08T01:24:16.993Z,1006.42
2018-05-08T01:25:16.979Z,1006.4
2018-05-08T01:26:16.965Z,1006.37
2018-05-08T01:27:16.954Z,1006.35
2018-05-08T01:28:16.942Z,1006.35
2018-05-08T01:29:16.929Z,1006.37
2018-05-08T01:30:16.917Z,1006.3
2018-05-08T01:31:16.903Z,1006.33
2018-05-08T01:32:16.892Z,1006.32
2018-05-08T01:33:16.883Z,1006.33
2018-05-08T01:34:16.868Z,1006.34
2018-05-08T01:35:16.855Z,1006.33
2018-05-08T01:36:16.842Z,1006.3
2018-05-08T01:37:16.829Z,1006.28
2018-05-08T01:38:16.816Z,1006.29
2018-05-08T01:39:16.804Z,1006.28
2018-05-08T01:40:16.792Z,1006.27
2018-05-08T01:41:16.778Z,1006.26
2018-05-08T01:42:16.769Z,1006.25
2018-05-08T01:43:16.822Z,1006.24
2018-05-08T01:44:16.740Z,1006.29
2018-05-08T01:45:16.732Z,1006.27
2018-05-08T01:46:16.717Z,1006.28
2018-05-08T01:47:16.706Z,1006.27
2018-05-08T01:48:16.693Z,1006.26
2018-05-08T01:49:16.680Z,1006.23
2018-05-08T01:50:16.665Z,1006.24
2018-05-08T01:51:16.654Z,1006.19
2018-05-08T01:52:16.640Z,1006.21
2018-05-08T01:53:16.629Z,1006.22
2018-05-08T01:54:16.617Z,1006.2
2018-05-08T01:55:16.605Z,1006.22
2018-05-08T01:56:16.590Z,1006.24
2018-05-08T01:57:16.577Z,1006.27
2018-05-08T01:58:16.565Z,1006.23
2018-05-08T01:59:16.551Z,1006.23
2018-05-08T02:00:16.538Z,1006.26
2018-05-08T02:01:16.526Z,1006.21
2018-05-08T02:02:16.514Z,1006.24
2018-05-08T02:03:16.703Z,1006.22
2018-05-08T02:04:16.488Z,1006.23
2018-05-08T02:05:16.480Z,1006.24
2018-05-08T02:06:16.461Z,1006.27
2018-05-08T02:07:16.449Z,1006.17
2018-05-08T02:08:16.441Z,1006.23
2018-05-08T02:09:16.424Z,1006.25
2018-05-08T02:10:16.411Z,1006.19
2018-05-08T02:11:16.402Z,1006.19
2018-05-08T02:12:16.387Z,1006.19
2018-05-08T02:13:16.372Z,1006.18
2018-05-08T02:14:16.360Z,1006.18
2018-05-08T02:15:16.346Z,1006.15
2018-05-08T02:16:16.335Z,1006.14
2018-05-08T02:17:16.320Z,1006.14
2018-05-08T02:18:16.308Z,1006.1
2018-05-08T02:19:16.296Z,1006.09
2018-05-08T02:20:16.368Z,1006.08
2018-05-08T02:21:16.268Z,1006.08
2018-05-08T02:22:16.256Z,1006.06
2018-05-08T02:23:16.243Z,1006.03
2018-05-08T02:24:16.232Z,1006.02
2018-05-08T02:25:16.218Z,1006.06
2018-05-08T02:26:16.204Z,1006.01
2018-05-08T02:27:16.192Z,1005.99
2018-05-08T02:28:16.179Z,1005.97
2018-05-08T02:29:16.173Z,1005.99
2018-05-08T02:30:16.160Z,1005.97
2018-05-08T02:31:16.140Z,1005.98
2018-05-08T02:32:16.129Z,1005.97
2018-05-08T02:33:16.114Z,1005.97
2018-05-08T02:34:16.099Z,1005.93
2018-05-08T02:35:16.094Z,1005.93
2018-05-08T02:36:16.079Z,1005.98
2018-05-08T02:37:16.061Z,1005.98
2018-05-08T02:38:16.055Z,1005.95
2018-05-08T02:39:16.035Z,1005.99
2018-05-08T02:40:16.021Z,1006.01
2018-05-08T02:41:16.009Z,1005.95
2018-05-08T02:42:15.995Z,1005.99
2018-05-08T02:43:15.983Z,1006
2018-05-08T02:44:15.968Z,1005.96
2018-05-08T02:45:15.960Z,1005.99
2018-05-08T02:46:15.945Z,1005.94
2018-05-08T02:47:15.935Z,1005.87
2018-05-08T02:48:15.917Z,1005.92
2018-05-08T02:49:15.907Z,1005.91
2018-05-08T02:50:15.891Z,1005.92
2018-05-08T02:51:15.876Z,1005.92
2018-05-08T02:52:15.867Z,1005.9
2018-05-08T02:53:15.851Z,1005.91
2018-05-08T02:54:15.838Z,1005.9
2018-05-08T02:55:15.824Z,1005.89
2018-05-08T02:56:15.823Z,1005.9
2018-05-08T02:57:15.803Z,1005.89
2018-05-08T02:58:15.785Z,1005.89
2018-05-08T02:59:15.772Z,1005.86
2018-05-08T03:00:15.760Z,1005.87
2018-05-08T03:01:15.744Z,1005.84
2018-05-08T03:02:15.735Z,1005.87
2018-05-08T03:03:15.724Z,1005.86
2018-05-08T03:04:15.706Z,1005.87
2018-05-08T03:05:15.691Z,1005.88
2018-05-08T03:06:15.683Z,1005.83
2018-05-08T03:07:15.668Z,1005.85
2018-05-08T03:08:15.656Z,1005.84
2018-05-08T03:09:15.643Z,1005.84
2018-05-08T03:10:15.627Z,1005.82
2018-05-08T03:11:15.612Z,1005.87
2018-05-08T03:12:15.606Z,1005.87
2018-05-08T03:13:15.585Z,1005.86
2018-05-08T03:14:15.572Z,1005.88
2018-05-08T03:15:15.558Z,1005.83
2018-05-08T03:16:15.547Z,1005.88
2018-05-08T03:17:15.536Z,1005.85
2018-05-08T03:18:15.518Z,1005.93
2018-05-08T03:19:15.505Z,1005.89
2018-05-08T03:20:15.493Z,1005.86
2018-05-08T03:21:15.480Z,1005.87
2018-05-08T03:22:15.517Z,1005.87
2018-05-08T03:23:15.453Z,1005.88
2018-05-08T03:24:15.438Z,1005.87
2018-05-08T03:25:15.425Z,1005.83
2018-05-08T03:26:15.412Z,1005.85
2018-05-08T03:27:15.408Z,1005.88
2018-05-08T03:28:15.384Z,1005.84
2018-05-08T03:29:15.373Z,1005.84
2018-05-08T03:30:15.366Z,1005.83
2018-05-08T03:31:15.357Z,1005.82
2018-05-08T03:32:15.337Z,1005.79
2018-05-08T03:33:15.325Z,1005.81
2018-05-08T03:34:15.309Z,1005.79
2018-05-08T03:35:15.298Z,1005.82
2018-05-08T03:36:15.279Z,1005.78
2018-05-08T03:37:15.264Z,1005.78
2018-05-08T03:38:15.253Z,1005.77
2018-05-08T03:39:15.247Z,1005.78
2018-05-08T03:40:15.227Z,1005.76
2018-05-08T03:41:15.212Z,1005.8
2018-05-08T03:42:15.199Z,1005.78
2018-05-08T03:43:15.183Z,1005.75
2018-05-08T03:44:15.170Z,1005.74
2018-05-08T03:45:15.157Z,1005.74
2018-05-08T03:46:15.147Z,1005.77
2018-05-08T03:47:15.132Z,1005.74
2018-05-08T03:48:15.115Z,1005.75
2018-05-08T03:49:15.104Z,1005.8
2018-05-08T03:50:15.093Z,1005.75
2018-05-08T03:51:15.126Z,1005.76
2018-05-08T03:52:15.063Z,1005.76
2018-05-08T03:53:15.050Z,1005.76
2018-05-08T03:54:15.037Z,1005.74
2018-05-08T03:55:15.032Z,1005.71
2018-05-08T03:56:15.008Z,1005.72
2018-05-08T03:57:14.995Z,1005.68
2018-05-08T03:58:14.983Z,1005.72
2018-05-08T03:59:14.969Z,1005.69
2018-05-08T04:00:14.954Z,1005.67
2018-05-08T04:01:14.941Z,1005.67
2018-05-08T04:02:14.927Z,1005.65
2018-05-08T04:03:15.116Z,1005.68
2018-05-08T04:04:14.902Z,1005.66
2018-05-08T04:05:14.886Z,1005.63
2018-05-08T04:06:14.876Z,1005.62
2018-05-08T04:07:14.859Z,1005.63
2018-05-08T04:08:14.878Z,1005.64
2018-05-08T04:09:14.834Z,1005.65
2018-05-08T04:10:14.825Z,1005.61
2018-05-08T04:11:14.812Z,1005.63
2018-05-08T04:12:14.794Z,1005.65
2018-05-08T04:13:14.782Z,1005.64
2018-05-08T04:14:14.764Z,1005.65
2018-05-08T04:15:14.755Z,1005.62
2018-05-08T04:16:14.738Z,1005.62
2018-05-08T04:17:14.731Z,1005.57
2018-05-08T04:18:14.711Z,1005.57
2018-05-08T04:19:14.699Z,1005.54
2018-05-08T04:20:14.687Z,1005.51
2018-05-08T04:21:14.675Z,1005.55
2018-05-08T04:22:14.661Z,1005.52
2018-05-08T04:23:14.643Z,1005.53
2018-05-08T04:24:14.630Z,1005.51
2018-05-08T04:25:14.617Z,1005.53
2018-05-08T04:26:14.605Z,1005.53
2018-05-08T04:27:14.599Z,1005.54
2018-05-08T04:28:14.576Z,1005.5
2018-05-08T04:29:14.574Z,1005.52
2018-05-08T04:30:14.548Z,1005.51
2018-05-08T04:31:14.539Z,1005.53
2018-05-08T04:32:14.523Z,1005.52
2018-05-08T04:33:14.508Z,1005.51
2018-05-08T04:34:14.500Z,1005.5
2018-05-08T04:35:14.486Z,1005.48
2018-05-08T04:36:14.467Z,1005.46
2018-05-08T04:37:14.456Z,1005.48
2018-05-08T04:38:14.442Z,1005.46
2018-05-08T04:39:14.433Z,1005.45
2018-05-08T04:40:14.413Z,1005.45
2018-05-08T04:41:14.404Z,1005.44
2018-05-08T04:42:14.387Z,1005.45
2018-05-08T04:43:14.372Z,1005.42
2018-05-08T04:44:14.360Z,1005.45
2018-05-08T04:45:14.347Z,1005.48
2018-05-08T04:46:14.334Z,1005.43
2018-05-08T04:47:14.319Z,1005.42
2018-05-08T04:48:14.306Z,1005.42
2018-05-08T04:49:14.293Z,1005.43
2018-05-08T04:50:14.279Z,1005.42
2018-05-08T04:51:14.269Z,1005.41
2018-05-08T04:52:14.253Z,1005.4
2018-05-08T04:53:14.240Z,1005.39
2018-05-08T04:54:14.227Z,1005.4
2018-05-08T04:55:14.212Z,1005.39
2018-05-08T04:56:14.200Z,1005.38
2018-05-08T04:57:14.186Z,1005.38
2018-05-08T04:58:14.172Z,1005.37
2018-05-08T04:59:14.161Z,1005.33
2018-05-08T05:00:14.145Z,1005.32
2018-05-08T05:01:14.132Z,1005.3
2018-05-08T05:02:14.122Z,1005.31
2018-05-08T05:03:14.107Z,1005.27
2018-05-08T05:04:14.097Z,1005.29
2018-05-08T05:05:14.080Z,1005.29
2018-05-08T05:06:14.065Z,1005.27
2018-05-08T05:07:14.055Z,1005.29
2018-05-08T05:08:14.041Z,1005.31
2018-05-08T05:09:14.027Z,1005.28
2018-05-08T05:10:14.016Z,1005.3
2018-05-08T05:11:14.063Z,1005.3
2018-05-08T05:12:13.987Z,1005.27
2018-05-08T05:13:13.972Z,1005.25
2018-05-08T05:14:13.960Z,1005.27
2018-05-08T05:15:13.949Z,1005.28
2018-05-08T05:16:13.934Z,1005.26
2018-05-08T05:17:13.920Z,1005.29
2018-05-08T05:18:13.908Z,1005.29
2018-05-08T05:19:13.896Z,1005.24
2018-05-08T05:20:13.882Z,1005.28
2018-05-08T05:21:13.869Z,1005.25
2018-05-08T05:22:13.858Z,1005.25
2018-05-08T05:23:13.843Z,1005.23
2018-05-08T05:24:13.831Z,1005.24
2018-05-08T05:25:13.819Z,1005.25
2018-05-08T05:26:13.808Z,1005.22
2018-05-08T05:27:13.790Z,1005.22
2018-05-08T05:28:13.779Z,1005.22
2018-05-08T05:29:13.765Z,1005.22
2018-05-08T05:30:13.753Z,1005.26
2018-05-08T05:31:13.738Z,1005.27
2018-05-08T05:32:13.729Z,1005.29
2018-05-08T05:33:13.713Z,1005.27
2018-05-08T05:34:13.705Z,1005.25
2018-05-08T05:35:13.693Z,1005.27
2018-05-08T05:36:13.676Z,1005.3
2018-05-08T05:37:13.663Z,1005.22
2018-05-08T05:38:13.649Z,1005.23
2018-05-08T05:39:13.637Z,1005.22
2018-05-08T05:40:13.630Z,1005.26
2018-05-08T05:41:13.616Z,1005.26
2018-05-08T05:42:13.598Z,1005.25
2018-05-08T05:43:13.588Z,1005.21
2018-05-08T05:44:13.575Z,1005.21
2018-05-08T05:45:13.561Z,1005.19
2018-05-08T05:46:13.549Z,1005.16
2018-05-08T05:47:13.536Z,1005.12
2018-05-08T05:48:13.526Z,1005.13
2018-05-08T05:49:13.510Z,1005.13
2018-05-08T05:50:13.498Z,1005.12
2018-05-08T05:51:13.486Z,1005.13
2018-05-08T05:52:13.476Z,1005.08
2018-05-08T05:53:13.500Z,1005.07
2018-05-08T05:54:13.451Z,1005.13
2018-05-08T05:55:13.436Z,1005.1
2018-05-08T05:56:13.429Z,1005.07
2018-05-08T05:57:13.411Z,1005.07
2018-05-08T05:58:13.401Z,1005.07
2018-05-08T05:59:13.386Z,1005.04
2018-05-08T06:00:13.375Z,1005.03
2018-05-08T06:01:13.363Z,1005
2018-05-08T06:02:13.352Z,1005.03
2018-05-08T06:03:13.539Z,1005.05
2018-05-08T06:04:13.323Z,1005
2018-05-08T06:05:13.312Z,1005
2018-05-08T06:06:13.303Z,1005.03
2018-05-08T06:07:13.288Z,1004.98
2018-05-08T06:08:13.275Z,1004.99
2018-05-08T06:09:13.330Z,1004.95
2018-05-08T06:10:13.252Z,1004.96
2018-05-08T06:11:13.239Z,1004.96
2018-05-08T06:12:13.226Z,1004.95
2018-05-08T06:13:13.216Z,1004.92
2018-05-08T06:14:13.203Z,1004.95
2018-05-08T06:15:13.194Z,1004.96
2018-05-08T06:16:13.179Z,1004.97
2018-05-08T06:17:13.178Z,1004.92
2018-05-08T06:18:13.154Z,1004.94
2018-05-08T06:19:13.144Z,1004.95
2018-05-08T06:20:13.131Z,1004.92
2018-05-08T06:21:13.121Z,1004.91
2018-05-08T06:22:13.108Z,1004.92
2018-05-08T06:23:13.096Z,1004.92
2018-05-08T06:24:13.083Z,1004.96
2018-05-08T06:25:13.073Z,1004.96
2018-05-08T06:26:13.059Z,1005
2018-05-08T06:27:13.048Z,1004.97
2018-05-08T06:28:13.038Z,1005
2018-05-08T06:29:13.025Z,1005
2018-05-08T06:30:13.019Z,1004.98
2018-05-08T06:31:13.003Z,1005.01
2018-05-08T06:32:12.990Z,1004.96
2018-05-08T06:33:12.978Z,1004.99
2018-05-08T06:34:12.968Z,1005
2018-05-08T06:35:12.959Z,1004.95
2018-05-08T06:36:12.949Z,1004.99
2018-05-08T06:37:12.934Z,1005
2018-05-08T06:38:12.925Z,1004.94
2018-05-08T06:39:12.959Z,1004.94
2018-05-08T06:40:12.900Z,1004.97
2018-05-08T06:41:12.888Z,1004.96
2018-05-08T06:42:12.880Z,1004.92
2018-05-08T06:43:12.869Z,1004.95
2018-05-08T06:44:12.944Z,1004.92
2018-05-08T06:45:12.845Z,1004.94
2018-05-08T06:46:12.840Z,1004.89
2018-05-08T06:47:12.824Z,1004.86
2018-05-08T06:48:12.811Z,1004.89
2018-05-08T06:49:12.800Z,1004.89
2018-05-08T06:50:12.794Z,1004.88
2018-05-08T06:51:12.780Z,1004.88
2018-05-08T06:52:12.767Z,1004.89
2018-05-08T06:53:12.757Z,1004.87
2018-05-08T06:54:12.748Z,1004.84
2018-05-08T06:55:12.734Z,1004.85
2018-05-08T06:56:12.723Z,1004.88
2018-05-08T06:57:12.711Z,1004.88
2018-05-08T06:58:12.700Z,1004.91
2018-05-08T06:59:12.690Z,1004.91
2018-05-08T07:00:12.679Z,1004.94
2018-05-08T07:01:12.670Z,1004.96
2018-05-08T07:02:12.658Z,1004.9
2018-05-08T07:03:12.648Z,1004.9
2018-05-08T07:04:12.638Z,1004.88
2018-05-08T07:05:12.627Z,1004.86
2018-05-08T07:06:12.613Z,1004.88
2018-05-08T07:07:12.609Z,1004.92
2018-05-08T07:08:12.593Z,1004.89
2018-05-08T07:09:12.588Z,1004.89
2018-05-08T07:10:12.571Z,1004.89
2018-05-08T07:11:12.562Z,1004.91
2018-05-08T07:12:12.552Z,1004.89
2018-05-08T07:13:12.542Z,1004.91
2018-05-08T07:14:12.529Z,1004.91
2018-05-08T07:15:12.518Z,1004.86
2018-05-08T07:16:12.760Z,1004.88
2018-05-08T07:17:12.498Z,1004.9
2018-05-08T07:18:12.487Z,1004.87
2018-05-08T07:19:12.477Z,1004.87
2018-05-08T07:20:12.467Z,1004.88
2018-05-08T07:21:12.457Z,1004.91
2018-05-08T07:22:12.446Z,1004.93
2018-05-08T07:23:12.437Z,1004.93
2018-05-08T07:24:12.424Z,1004.95
2018-05-08T07:25:12.420Z,1005.05
2018-05-08T07:26:12.406Z,1005.1
2018-05-08T07:27:12.398Z,1005.09
2018-05-08T07:28:12.386Z,1005.04
2018-05-08T07:29:12.375Z,1005.08
2018-05-08T07:30:12.366Z,1005.06
2018-05-08T07:31:12.356Z,1005.03
2018-05-08T07:32:12.347Z,1004.98
2018-05-08T07:33:12.338Z,1004.97
2018-05-08T07:34:12.335Z,1004.99
2018-05-08T07:35:12.320Z,1004.99
2018-05-08T07:36:12.321Z,1005
2018-05-08T07:37:12.306Z,1005.05
2018-05-08T07:38:12.376Z,1004.98
2018-05-08T07:39:12.289Z,1004.97
2018-05-08T07:40:12.280Z,1004.99
2018-05-08T07:41:12.274Z,1004.95
2018-05-08T07:42:12.265Z,1004.92
2018-05-08T07:43:12.256Z,1004.96
2018-05-08T07:44:12.252Z,1004.95
2018-05-08T07:45:12.243Z,1004.95
2018-05-08T07:46:12.234Z,1004.94
2018-05-08T07:47:12.227Z,1004.97
2018-05-08T07:48:12.219Z,1004.96
2018-05-08T07:49:12.214Z,1004.94
2018-05-08T07:50:12.207Z,1004.97
2018-05-08T07:51:12.194Z,1004.96
2018-05-08T07:52:12.188Z,1004.95
2018-05-08T07:53:12.181Z,1004.95
2018-05-08T07:54:12.171Z,1004.99
2018-05-08T07:55:12.165Z,1005
2018-05-08T07:56:12.159Z,1005
2018-05-08T07:57:12.148Z,1004.96
2018-05-08T07:58:12.142Z,1004.97
2018-05-08T07:59:12.135Z,1004.99
2018-05-08T08:00:12.126Z,1004.94
2018-05-08T08:01:12.119Z,1004.92
2018-05-08T08:02:12.112Z,1004.89
2018-05-08T08:03:12.319Z,1004.9
2018-05-08T08:04:12.101Z,1004.92
2018-05-08T08:05:12.091Z,1004.9
2018-05-08T08:06:12.082Z,1004.95
2018-05-08T08:07:12.078Z,1005.17
2018-05-08T08:08:12.065Z,1005.31
2018-05-08T08:09:12.060Z,1005.31
2018-05-08T08:10:12.051Z,1005.27
2018-05-08T08:11:12.048Z,1005.34
2018-05-08T08:12:12.043Z,1005.32
2018-05-08T08:13:12.037Z,1005.35
2018-05-08T08:14:12.031Z,1005.34
2018-05-08T08:15:12.029Z,1005.32
2018-05-08T08:16:12.021Z,1005.41
2018-05-08T08:17:12.021Z,1005.33
2018-05-08T08:18:12.017Z,1005.34
2018-05-08T08:19:12.011Z,1005.32
2018-05-08T08:20:12.008Z,1005.34
2018-05-08T08:21:12.006Z,1005.36
2018-05-08T08:22:12.006Z,1005.35
2018-05-08T08:23:12.002Z,1005.35
2018-05-08T08:24:12.000Z,1005.4
2018-05-08T08:25:12.005Z,1005.36
2018-05-08T08:26:11.999Z,1005.32
2018-05-08T08:27:11.998Z,1005.31
2018-05-08T08:28:11.998Z,1005.32
2018-05-08T08:29:11.998Z,1005.26
2018-05-08T08:30:12.001Z,1005.21
2018-05-08T08:31:12.000Z,1005
2018-05-08T08:32:12.000Z,1005.01
2018-05-08T08:33:11.999Z,1005.06
2018-05-08T08:34:12.002Z,1004.99
2018-05-08T08:35:12.002Z,1005
2018-05-08T08:36:12.003Z,1005
2018-05-08T08:37:12.002Z,1004.92
2018-05-08T08:38:12.006Z,1004.95
2018-05-08T08:39:12.002Z,1004.84
2018-05-08T08:40:12.003Z,1005.08
2018-05-08T08:41:12.003Z,1004.85
2018-05-08T08:42:12.011Z,1004.82
2018-05-08T08:43:12.017Z,1004.92
2018-05-08T08:44:12.004Z,1004.95
2018-05-08T08:45:12.000Z,1004.86
2018-05-08T08:46:11.999Z,1004.75
2018-05-08T08:47:11.997Z,1004.76
2018-05-08T08:48:11.997Z,1004.75
2018-05-08T08:49:11.993Z,1004.7
2018-05-08T08:50:11.991Z,1004.71
2018-05-08T08:51:11.989Z,1004.67
2018-05-08T08:52:11.986Z,1004.68
2018-05-08T08:53:11.987Z,1004.68
2018-05-08T08:54:11.981Z,1004.68
2018-05-08T08:55:11.980Z,1004.61
2018-05-08T08:56:11.979Z,1004.64
2018-05-08T08:57:11.974Z,1004.66
2018-05-08T08:58:11.972Z,1004.62
2018-05-08T08:59:11.966Z,1004.67
2018-05-08T09:00:11.967Z,1004.63
2018-05-08T09:01:11.963Z,1004.61
2018-05-08T09:02:11.959Z,1004.61
2018-05-08T09:03:11.952Z,1004.58
2018-05-08T09:04:11.950Z,1004.62
2018-05-08T09:05:11.946Z,1004.56
2018-05-08T09:06:11.943Z,1004.56
2018-05-08T09:07:11.947Z,1004.52
2018-05-08T09:08:11.933Z,1004.51
2018-05-08T09:09:11.929Z,1004.51
2018-05-08T09:10:11.924Z,1004.49
2018-05-08T09:11:12.006Z,1004.44
2018-05-08T09:12:11.918Z,1004.43
2018-05-08T09:13:11.939Z,1004.4
2018-05-08T09:14:11.907Z,1004.38
2018-05-08T09:15:11.900Z,1004.4
2018-05-08T09:16:11.903Z,1004.39
2018-05-08T09:17:11.892Z,1004.36
2018-05-08T09:18:11.885Z,1004.36
2018-05-08T09:19:11.880Z,1004.34
2018-05-08T09:20:11.877Z,1004.32
2018-05-08T09:21:11.869Z,1004.35
2018-05-08T09:22:11.866Z,1004.28
2018-05-08T09:23:11.862Z,1004.29
2018-05-08T09:24:11.856Z,1004.26
2018-05-08T09:25:11.861Z,1004.32
2018-05-08T09:26:11.854Z,1004.24
2018-05-08T09:27:11.839Z,1004.25
2018-05-08T09:28:11.833Z,1004.25
2018-05-08T09:29:11.830Z,1004.22
2018-05-08T09:30:11.823Z,1004.19
2018-05-08T09:31:11.823Z,1004.17
2018-05-08T09:32:11.818Z,1004.13
2018-05-08T09:33:11.807Z,1004.13
2018-05-08T09:34:11.803Z,1004.12
2018-05-08T09:35:11.801Z,1004.1
2018-05-08T09:36:11.788Z,1004.13
2018-05-08T09:37:11.782Z,1004.07
2018-05-08T09:38:11.777Z,1004.07
2018-05-08T09:39:11.770Z,1004.06
2018-05-08T09:40:11.764Z,1004.03
2018-05-08T09:41:11.758Z,1004.04
2018-05-08T09:42:11.752Z,1004.06
2018-05-08T09:43:11.751Z,1003.99
2018-05-08T09:44:11.740Z,1004.02
2018-05-08T09:45:11.739Z,1004.02
2018-05-08T09:46:11.728Z,1004.01
2018-05-08T09:47:11.723Z,1003.95
2018-05-08T09:48:11.723Z,1003.94
2018-05-08T09:49:11.752Z,1003.96
2018-05-08T09:50:11.704Z,1003.91
2018-05-08T09:51:11.700Z,1003.91
2018-05-08T09:52:11.697Z,1003.88
2018-05-08T09:53:11.687Z,1003.86
2018-05-08T09:54:11.710Z,1003.85
2018-05-08T09:55:11.675Z,1003.86
2018-05-08T09:56:11.670Z,1003.83
2018-05-08T09:57:11.664Z,1003.82
2018-05-08T09:58:11.659Z,1003.8
2018-05-08T09:59:11.652Z,1003.82
2018-05-08T10:00:11.653Z,1003.79
2018-05-08T10:01:11.639Z,1003.76
2018-05-08T10:02:11.633Z,1003.77
2018-05-08T10:03:11.830Z,1003.74
2018-05-08T10:04:11.624Z,1003.81
2018-05-08T10:05:11.615Z,1003.83
2018-05-08T10:06:11.610Z,1003.8
2018-05-08T10:07:11.606Z,1003.78
2018-05-08T10:08:11.597Z,1003.77
2018-05-08T10:09:11.600Z,1003.83
2018-05-08T10:10:11.586Z,1003.75
2018-05-08T10:11:11.580Z,1003.79
2018-05-08T10:12:11.630Z,1003.83
2018-05-08T10:13:11.569Z,1003.79
2018-05-08T10:14:11.564Z,1003.74
2018-05-08T10:15:11.561Z,1003.81
2018-05-08T10:16:11.571Z,1003.74
2018-05-08T10:17:11.549Z,1003.76
2018-05-08T10:18:11.543Z,1003.8
2018-05-08T10:19:11.537Z,1003.79
2018-05-08T10:20:11.532Z,1003.91
2018-05-08T10:21:11.529Z,1004.07
2018-05-08T10:22:11.523Z,1004.03
2018-05-08T10:23:11.525Z,1004
2018-05-08T10:24:11.511Z,1003.99
2018-05-08T10:25:11.508Z,1004.01
2018-05-08T10:26:11.506Z,1004.07
2018-05-08T10:27:11.506Z,1004.04
2018-05-08T10:28:11.500Z,1003.99
2018-05-08T10:29:11.498Z,1004
2018-05-08T10:30:11.495Z,1003.96
2018-05-08T10:31:11.495Z,1003.95
2018-05-08T10:32:11.504Z,1003.99
2018-05-08T10:33:11.496Z,1004
2018-05-08T10:34:11.495Z,1003.92
2018-05-08T10:35:11.497Z,1003.91
2018-05-08T10:36:11.498Z,1003.91
2018-05-08T10:37:11.550Z,1003.88
2018-05-08T10:38:11.503Z,1003.88
2018-05-08T10:39:11.504Z,1003.87
2018-05-08T10:40:11.508Z,1003.84
2018-05-08T10:41:11.509Z,1003.77
2018-05-08T10:42:11.516Z,1003.7
2018-05-08T10:43:11.520Z,1003.68
2018-05-08T10:44:11.523Z,1003.62
2018-05-08T10:45:11.531Z,1003.58
2018-05-08T10:46:11.531Z,1003.59
2018-05-08T10:47:11.535Z,1003.58
2018-05-08T10:48:11.543Z,1003.56
2018-05-08T10:49:11.546Z,1003.58
2018-05-08T10:50:11.559Z,1003.51
2018-05-08T10:51:11.561Z,1003.55
2018-05-08T10:52:11.565Z,1003.53
2018-05-08T10:53:11.571Z,1003.49
2018-05-08T10:54:11.577Z,1003.47
2018-05-08T10:55:11.583Z,1003.47
2018-05-08T10:56:11.589Z,1003.48
2018-05-08T10:57:11.597Z,1003.44
2018-05-08T10:58:11.601Z,1003.4
2018-05-08T10:59:11.608Z,1003.35
2018-05-08T11:00:11.619Z,1003.35
2018-05-08T11:01:11.624Z,1003.37
2018-05-08T11:02:11.629Z,1003.31
2018-05-08T11:03:11.636Z,1003.36
2018-05-08T11:04:11.645Z,1003.31
2018-05-08T11:05:11.656Z,1003.31
2018-05-08T11:06:11.660Z,1003.31
2018-05-08T11:07:11.667Z,1003.33
2018-05-08T11:08:11.675Z,1003.39
2018-05-08T11:09:11.680Z,1003.36
2018-05-08T11:10:11.689Z,1003.27
2018-05-08T11:11:11.695Z,1003.33
2018-05-08T11:12:11.704Z,1003.25
2018-05-08T11:13:11.713Z,1003.26
2018-05-08T11:14:11.719Z,1003.29
2018-05-08T11:15:11.727Z,1003.23
2018-05-08T11:16:11.734Z,1003.28
2018-05-08T11:17:11.743Z,1003.19
2018-05-08T11:18:11.749Z,1003.18
2018-05-08T11:19:11.758Z,1003.21
2018-05-08T11:20:11.767Z,1003.19
2018-05-08T11:21:11.774Z,1003.15
2018-05-08T11:22:11.782Z,1003.15
2018-05-08T11:23:11.795Z,1003.15
2018-05-08T11:24:11.800Z,1003.1
2018-05-08T11:25:11.809Z,1003.06
2018-05-08T11:26:11.814Z,1003.09
2018-05-08T11:27:11.823Z,1003.15
2018-05-08T11:28:11.834Z,1003.1
2018-05-08T11:29:11.839Z,1003.05
2018-05-08T11:30:11.852Z,1003.01
2018-05-08T11:31:11.858Z,1003.03
2018-05-08T11:32:11.865Z,1003.01
2018-05-08T11:33:11.914Z,1003.01
2018-05-08T11:34:11.883Z,1003.01
2018-05-08T11:35:11.891Z,1002.96
2018-05-08T11:36:11.900Z,1002.95
2018-05-08T11:37:11.908Z,1002.96
2018-05-08T11:38:11.920Z,1002.93
2018-05-08T11:39:11.934Z,1002.94
2018-05-08T11:40:11.938Z,1002.95
2018-05-08T11:41:11.950Z,1002.94
2018-05-08T11:42:11.952Z,1002.97
2018-05-08T11:43:11.961Z,1002.93
2018-05-08T11:44:11.972Z,1002.88
2018-05-08T11:45:11.978Z,1002.89
2018-05-08T11:46:11.986Z,1002.87
2018-05-08T11:47:11.997Z,1002.84
2018-05-08T11:48:12.005Z,1002.83
2018-05-08T11:49:12.014Z,1002.84
2018-05-08T11:50:12.023Z,1002.79
2018-05-08T11:51:12.032Z,1002.81
2018-05-08T11:52:12.044Z,1002.82
2018-05-08T11:53:12.051Z,1002.87
2018-05-08T11:54:12.059Z,1002.79
2018-05-08T11:55:12.066Z,1002.76
2018-05-08T11:56:12.077Z,1002.74
2018-05-08T11:57:12.090Z,1002.75
2018-05-08T11:58:12.096Z,1002.75
2018-05-08T11:59:12.107Z,1002.7
2018-05-08T12:00:12.114Z,1002.72
2018-05-08T12:01:12.123Z,1002.68
2018-05-08T12:02:12.131Z,1002.71
2018-05-08T12:03:12.144Z,1002.69
2018-05-08T12:04:12.153Z,1002.68
2018-05-08T12:05:12.160Z,1002.64
2018-05-08T12:06:12.167Z,1002.62
2018-05-08T12:07:12.177Z,1002.59
2018-05-08T12:08:12.189Z,1002.55